sensor_id;sensor_type;location;lat;lon;timestamp;P1;durP1;ratioP1;P2;durP2;ratioP2
42118;SDS011;27783;42.782;23.274;2022-08-11T00:01:23;5.72;;;5.22;;
42118;SDS011;27783;42.782;23.274;2022-08-11T00:04:01;6.22;;;5.82;;
42118;SDS011;27783;42.782;23.274;2022-08-11T00:06:34;6.07;;;5.65;;
42118;SDS011;27783;42.782;23.274;2022-08-11T00:09:03;6.18;;;4.88;;
42118;SDS011;27783;42.782;23.274;2022-08-11T00:11:34;5.82;;;5.22;;
42118;SDS011;27783;42.782;23.274;2022-08-11T00:14:00;5.72;;;5.30;;
42118;SDS011;27783;42.782;23.274;2022-08-11T00:19:26;6.93;;;5.40;;
42118;SDS011;27783;42.782;23.274;2022-08-11T00:21:59;6.65;;;5.22;;
42118;SDS011;27783;42.782;23.274;2022-08-11T00:24:36;6.03;;;5.47;;
42118;SDS011;27783;42.782;23.274;2022-08-11T00:27:04;5.53;;;5.13;;
42118;SDS011;27783;42.782;23.274;2022-08-11T00:29:32;5.83;;;5.13;;
42118;SDS011;27783;42.782;23.274;2022-08-11T00:32:00;5.63;;;4.87;;
42118;SDS011;27783;42.782;23.274;2022-08-11T00:34:29;5.40;;;5.00;;
42118;SDS011;27783;42.782;23.274;2022-08-11T00:37:01;5.68;;;5.18;;
42118;SDS011;27783;42.782;23.274;2022-08-11T00:39:32;4.78;;;4.47;;
42118;SDS011;27783;42.782;23.274;2022-08-11T01:01:45;5.97;;;5.47;;
42118;SDS011;27783;42.782;23.274;2022-08-11T01:22:17;5.25;;;4.80;;
42118;SDS011;27783;42.782;23.274;2022-08-11T01:42:55;5.18;;;4.68;;
42118;SDS011;27783;42.782;23.274;2022-08-11T01:51:30;7.40;;;5.28;;
42118;SDS011;27783;42.782;23.274;2022-08-11T01:54:08;5.88;;;4.85;;
42118;SDS011;27783;42.782;23.274;2022-08-11T01:56:48;5.82;;;5.32;;
42118;SDS011;27783;42.782;23.274;2022-08-11T02:08:41;5.60;;;5.10;;
42118;SDS011;27783;42.782;23.274;2022-08-11T02:11:27;6.95;;;4.82;;
42118;SDS011;27783;42.782;23.274;2022-08-11T02:14:30;6.65;;;5.57;;
42118;SDS011;27783;42.782;23.274;2022-08-11T02:19:59;5.50;;;4.97;;
42118;SDS011;27783;42.782;23.274;2022-08-11T02:28:36;5.60;;;5.10;;
42118;SDS011;27783;42.782;23.274;2022-08-11T02:40:29;5.82;;;5.32;;
42118;SDS011;27783;42.782;23.274;2022-08-11T02:43:22;5.25;;;4.78;;
42118;SDS011;27783;42.782;23.274;2022-08-11T02:46:05;5.38;;;4.60;;
42118;SDS011;27783;42.782;23.274;2022-08-11T02:55:26;8.00;;;5.45;;
42118;SDS011;27783;42.782;23.274;2022-08-11T03:08:44;5.80;;;5.40;;
42118;SDS011;27783;42.782;23.274;2022-08-11T03:11:21;5.75;;;5.28;;
42118;SDS011;27783;42.782;23.274;2022-08-11T03:21:02;9.73;;;5.85;;
42118;SDS011;27783;42.782;23.274;2022-08-11T03:32:27;5.60;;;5.10;;
42118;SDS011;27783;42.782;23.274;2022-08-11T03:34:58;8.05;;;5.47;;
42118;SDS011;27783;42.782;23.274;2022-08-11T03:46:35;9.05;;;5.20;;
42118;SDS011;27783;42.782;23.274;2022-08-11T03:49:30;11.93;;;6.20;;
42118;SDS011;27783;42.782;23.274;2022-08-11T03:58:12;5.50;;;5.10;;
42118;SDS011;27783;42.782;23.274;2022-08-11T04:12:08;8.13;;;5.80;;
42118;SDS011;27783;42.782;23.274;2022-08-11T04:35:08;12.95;;;5.75;;
42118;SDS011;27783;42.782;23.274;2022-08-11T04:56:17;4.63;;;3.28;;
42118;SDS011;27783;42.782;23.274;2022-08-11T05:13:47;5.25;;;4.70;;
42118;SDS011;27783;42.782;23.274;2022-08-11T05:17:22;4.97;;;4.50;;
42118;SDS011;27783;42.782;23.274;2022-08-11T05:19:50;5.53;;;5.13;;
42118;SDS011;27783;42.782;23.274;2022-08-11T05:22:35;6.80;;;5.05;;
42118;SDS011;27783;42.782;23.274;2022-08-11T05:25:26;5.47;;;4.93;;
42118;SDS011;27783;42.782;23.274;2022-08-11T05:28:26;6.43;;;4.85;;
42118;SDS011;27783;42.782;23.274;2022-08-11T05:31:32;18.00;;;7.27;;
42118;SDS011;27783;42.782;23.274;2022-08-11T05:39:58;14.02;;;6.18;;
42118;SDS011;27783;42.782;23.274;2022-08-11T05:42:56;15.10;;;6.80;;
42118;SDS011;27783;42.782;23.274;2022-08-11T05:45:54;10.98;;;8.13;;
42118;SDS011;27783;42.782;23.274;2022-08-11T05:48:42;9.20;;;7.00;;
42118;SDS011;27783;42.782;23.274;2022-08-11T05:51:34;11.38;;;6.35;;
42118;SDS011;27783;42.782;23.274;2022-08-11T05:54:26;8.38;;;7.25;;
42118;SDS011;27783;42.782;23.274;2022-08-11T05:57:18;7.15;;;6.28;;
42118;SDS011;27783;42.782;23.274;2022-08-11T05:59:48;6.50;;;5.90;;
42118;SDS011;27783;42.782;23.274;2022-08-11T06:02:22;6.90;;;5.97;;
42118;SDS011;27783;42.782;23.274;2022-08-11T06:04:53;6.68;;;6.15;;
42118;SDS011;27783;42.782;23.274;2022-08-11T06:07:26;10.55;;;6.63;;
42118;SDS011;27783;42.782;23.274;2022-08-11T06:09:53;9.65;;;7.22;;
42118;SDS011;27783;42.782;23.274;2022-08-11T06:12:21;8.05;;;7.25;;
42118;SDS011;27783;42.782;23.274;2022-08-11T06:14:52;9.88;;;7.63;;
42118;SDS011;27783;42.782;23.274;2022-08-11T06:17:22;7.95;;;6.65;;
42118;SDS011;27783;42.782;23.274;2022-08-11T06:19:49;9.52;;;7.18;;
42118;SDS011;27783;42.782;23.274;2022-08-11T06:22:21;8.95;;;8.15;;
42118;SDS011;27783;42.782;23.274;2022-08-11T06:24:51;10.38;;;7.55;;
42118;SDS011;27783;42.782;23.274;2022-08-11T06:27:23;8.18;;;7.57;;
42118;SDS011;27783;42.782;23.274;2022-08-11T06:29:51;11.25;;;7.47;;
42118;SDS011;27783;42.782;23.274;2022-08-11T06:32:18;8.85;;;8.00;;
42118;SDS011;27783;42.782;23.274;2022-08-11T06:47:54;8.27;;;6.82;;
42118;SDS011;27783;42.782;23.274;2022-08-11T06:50:24;7.60;;;6.28;;
42118;SDS011;27783;42.782;23.274;2022-08-11T06:53:09;7.05;;;6.18;;
42118;SDS011;27783;42.782;23.274;2022-08-11T06:55:37;6.85;;;6.25;;
42118;SDS011;27783;42.782;23.274;2022-08-11T06:58:28;6.25;;;5.75;;
42118;SDS011;27783;42.782;23.274;2022-08-11T07:01:16;6.78;;;6.18;;
42118;SDS011;27783;42.782;23.274;2022-08-11T07:03:52;5.72;;;5.32;;
42118;SDS011;27783;42.782;23.274;2022-08-11T07:14:59;6.50;;;6.03;;
42118;SDS011;27783;42.782;23.274;2022-08-11T07:17:49;6.50;;;5.90;;
42118;SDS011;27783;42.782;23.274;2022-08-11T07:20:37;6.25;;;5.75;;
42118;SDS011;27783;42.782;23.274;2022-08-11T07:23:23;6.50;;;5.88;;
42118;SDS011;27783;42.782;23.274;2022-08-11T07:26:08;5.70;;;5.30;;
42118;SDS011;27783;42.782;23.274;2022-08-11T07:28:53;6.30;;;5.70;;
42118;SDS011;27783;42.782;23.274;2022-08-11T07:31:23;6.00;;;5.50;;
42118;SDS011;27783;42.782;23.274;2022-08-11T07:34:04;6.85;;;6.15;;
42118;SDS011;27783;42.782;23.274;2022-08-11T07:36:41;7.05;;;5.85;;
42118;SDS011;27783;42.782;23.274;2022-08-11T07:39:22;5.95;;;5.55;;
42118;SDS011;27783;42.782;23.274;2022-08-11T07:41:50;6.13;;;5.63;;
42118;SDS011;27783;42.782;23.274;2022-08-11T07:44:17;5.43;;;4.33;;
42118;SDS011;27783;42.782;23.274;2022-08-11T07:46:47;5.72;;;5.22;;
42118;SDS011;27783;42.782;23.274;2022-08-11T07:49:35;5.07;;;4.68;;
42118;SDS011;27783;42.782;23.274;2022-08-11T07:52:21;5.57;;;4.97;;
42118;SDS011;27783;42.782;23.274;2022-08-11T07:54:50;5.30;;;4.90;;
42118;SDS011;27783;42.782;23.274;2022-08-11T07:57:17;5.97;;;5.47;;
42118;SDS011;27783;42.782;23.274;2022-08-11T08:00:01;5.70;;;5.07;;
42118;SDS011;27783;42.782;23.274;2022-08-11T08:02:45;5.55;;;5.15;;
42118;SDS011;27783;42.782;23.274;2022-08-11T08:05:30;9.88;;;5.25;;
42118;SDS011;27783;42.782;23.274;2022-08-11T08:08:15;7.38;;;5.20;;
42118;SDS011;27783;42.782;23.274;2022-08-11T08:11:00;7.30;;;5.75;;
42118;SDS011;27783;42.782;23.274;2022-08-11T08:13:44;5.28;;;4.88;;
42118;SDS011;27783;42.782;23.274;2022-08-11T08:16:29;5.15;;;4.75;;
42118;SDS011;27783;42.782;23.274;2022-08-11T08:19:14;5.90;;;5.47;;
42118;SDS011;27783;42.782;23.274;2022-08-11T08:21:41;5.97;;;5.47;;
42118;SDS011;27783;42.782;23.274;2022-08-11T08:24:08;7.13;;;5.57;;
42118;SDS011;27783;42.782;23.274;2022-08-11T08:26:34;10.18;;;5.78;;
42118;SDS011;27783;42.782;23.274;2022-08-11T08:29:19;8.80;;;5.72;;
42118;SDS011;27783;42.782;23.274;2022-08-11T08:32:04;7.32;;;6.65;;
42118;SDS011;27783;42.782;23.274;2022-08-11T08:34:32;17.15;;;6.68;;
42118;SDS011;27783;42.782;23.274;2022-08-11T08:36:58;16.42;;;7.05;;
42118;SDS011;27783;42.782;23.274;2022-08-11T08:39:24;6.30;;;5.50;;
42118;SDS011;27783;42.782;23.274;2022-08-11T08:41:51;5.60;;;5.07;;
42118;SDS011;27783;42.782;23.274;2022-08-11T08:44:19;7.68;;;6.82;;
42118;SDS011;27783;42.782;23.274;2022-08-11T08:46:51;6.55;;;5.93;;
42118;SDS011;27783;42.782;23.274;2022-08-11T08:49:30;6.30;;;5.72;;
42118;SDS011;27783;42.782;23.274;2022-08-11T08:52:01;6.93;;;5.43;;
42118;SDS011;27783;42.782;23.274;2022-08-11T08:54:32;6.72;;;5.55;;
42118;SDS011;27783;42.782;23.274;2022-08-11T08:57:01;5.88;;;5.18;;
42118;SDS011;27783;42.782;23.274;2022-08-11T09:02:03;9.15;;;5.53;;
42118;SDS011;27783;42.782;23.274;2022-08-11T09:04:30;6.13;;;5.63;;
42118;SDS011;27783;42.782;23.274;2022-08-11T09:06:58;5.25;;;4.75;;
42118;SDS011;27783;42.782;23.274;2022-08-11T09:09:27;9.68;;;5.45;;
42118;SDS011;27783;42.782;23.274;2022-08-11T09:11:54;6.45;;;5.78;;
42118;SDS011;27783;42.782;23.274;2022-08-11T09:14:27;6.55;;;5.65;;
42118;SDS011;27783;42.782;23.274;2022-08-11T09:17:17;6.45;;;5.05;;
42118;SDS011;27783;42.782;23.274;2022-08-11T09:19:44;5.57;;;5.18;;
42118;SDS011;27783;42.782;23.274;2022-08-11T09:22:11;6.78;;;4.82;;
42118;SDS011;27783;42.782;23.274;2022-08-11T09:24:56;5.82;;;5.18;;
42118;SDS011;27783;42.782;23.274;2022-08-11T09:27:40;5.03;;;4.57;;
42118;SDS011;27783;42.782;23.274;2022-08-11T09:30:06;6.15;;;5.22;;
42118;SDS011;27783;42.782;23.274;2022-08-11T09:32:32;6.10;;;4.45;;
42118;SDS011;27783;42.782;23.274;2022-08-11T09:34:59;5.28;;;4.78;;
42118;SDS011;27783;42.782;23.274;2022-08-11T09:37:26;8.00;;;5.55;;
42118;SDS011;27783;42.782;23.274;2022-08-11T09:40:12;5.72;;;5.22;;
42118;SDS011;27783;42.782;23.274;2022-08-11T09:42:57;4.82;;;4.50;;
42118;SDS011;27783;42.782;23.274;2022-08-11T09:45:46;6.93;;;4.40;;
42118;SDS011;27783;42.782;23.274;2022-08-11T09:48:19;4.60;;;3.90;;
42118;SDS011;27783;42.782;23.274;2022-08-11T09:50:49;5.97;;;4.43;;
42118;SDS011;27783;42.782;23.274;2022-08-11T09:53:19;5.15;;;4.38;;
42118;SDS011;27783;42.782;23.274;2022-08-11T09:55:46;9.43;;;4.38;;
42118;SDS011;27783;42.782;23.274;2022-08-11T09:58:12;4.43;;;4.07;;
42118;SDS011;27783;42.782;23.274;2022-08-11T10:03:07;4.95;;;4.55;;
42118;SDS011;27783;42.782;23.274;2022-08-11T10:05:35;5.82;;;5.32;;
42118;SDS011;27783;42.782;23.274;2022-08-11T10:08:20;5.07;;;4.68;;
42118;SDS011;27783;42.782;23.274;2022-08-11T10:10:50;4.95;;;4.65;;
42118;SDS011;27783;42.782;23.274;2022-08-11T10:13:18;5.25;;;4.63;;
42118;SDS011;27783;42.782;23.274;2022-08-11T10:15:49;5.55;;;5.15;;
42118;SDS011;27783;42.782;23.274;2022-08-11T10:18:22;8.00;;;4.82;;
42118;SDS011;27783;42.782;23.274;2022-08-11T10:21:10;5.55;;;5.05;;
42118;SDS011;27783;42.782;23.274;2022-08-11T10:23:39;5.47;;;5.07;;
42118;SDS011;27783;42.782;23.274;2022-08-11T10:26:24;5.65;;;5.28;;
42118;SDS011;27783;42.782;23.274;2022-08-11T10:29:11;5.70;;;5.20;;
42118;SDS011;27783;42.782;23.274;2022-08-11T10:32:23;5.93;;;5.43;;
42118;SDS011;27783;42.782;23.274;2022-08-11T10:35:08;5.55;;;5.07;;
42118;SDS011;27783;42.782;23.274;2022-08-11T10:37:36;5.32;;;4.82;;
42118;SDS011;27783;42.782;23.274;2022-08-11T10:40:03;5.28;;;4.78;;
42118;SDS011;27783;42.782;23.274;2022-08-11T10:42:31;5.00;;;4.70;;
42118;SDS011;27783;42.782;23.274;2022-08-11T10:45:16;5.90;;;5.40;;
42118;SDS011;27783;42.782;23.274;2022-08-11T10:48:01;8.32;;;5.88;;
42118;SDS011;27783;42.782;23.274;2022-08-11T10:50:29;5.28;;;4.78;;
42118;SDS011;27783;42.782;23.274;2022-08-11T10:53:13;5.78;;;5.30;;
42118;SDS011;27783;42.782;23.274;2022-08-11T10:55:58;6.93;;;5.22;;
42118;SDS011;27783;42.782;23.274;2022-08-11T10:58:44;4.90;;;4.50;;
42118;SDS011;27783;42.782;23.274;2022-08-11T11:01:26;4.95;;;4.55;;
42118;SDS011;27783;42.782;23.274;2022-08-11T11:03:57;5.60;;;4.50;;
42118;SDS011;27783;42.782;23.274;2022-08-11T11:09:01;7.32;;;6.60;;
42118;SDS011;27783;42.782;23.274;2022-08-11T11:11:29;7.03;;;6.15;;
42118;SDS011;27783;42.782;23.274;2022-08-11T11:14:18;6.47;;;5.72;;
42118;SDS011;27783;42.782;23.274;2022-08-11T11:17:17;8.30;;;6.47;;
42118;SDS011;27783;42.782;23.274;2022-08-11T11:19:48;7.45;;;6.57;;
42118;SDS011;27783;42.782;23.274;2022-08-11T11:22:19;7.38;;;6.25;;
42118;SDS011;27783;42.782;23.274;2022-08-11T11:26:07;14.77;;;10.70;;
42118;SDS011;27783;42.782;23.274;2022-08-11T11:37:10;5.97;;;5.35;;
42118;SDS011;27783;42.782;23.274;2022-08-11T11:39:39;9.35;;;7.03;;
42118;SDS011;27783;42.782;23.274;2022-08-11T11:42:06;6.78;;;6.03;;
42118;SDS011;27783;42.782;23.274;2022-08-11T11:44:35;5.63;;;5.13;;
42118;SDS011;27783;42.782;23.274;2022-08-11T11:47:02;6.97;;;4.00;;
42118;SDS011;27783;42.782;23.274;2022-08-11T11:49:29;7.85;;;4.78;;
42118;SDS011;27783;42.782;23.274;2022-08-11T11:51:56;24.80;;;13.40;;
42118;SDS011;27783;42.782;23.274;2022-08-11T11:54:24;17.45;;;10.70;;
42118;SDS011;27783;42.782;23.274;2022-08-11T11:56:52;23.02;;;12.48;;
42118;SDS011;27783;42.782;23.274;2022-08-11T11:59:19;12.67;;;8.93;;
42118;SDS011;27783;42.782;23.274;2022-08-11T12:02:08;14.52;;;11.65;;
42118;SDS011;27783;42.782;23.274;2022-08-11T12:04:36;16.23;;;9.27;;
42118;SDS011;27783;42.782;23.274;2022-08-11T12:07:03;16.58;;;9.95;;
42118;SDS011;27783;42.782;23.274;2022-08-11T12:09:48;16.08;;;9.60;;
42118;SDS011;27783;42.782;23.274;2022-08-11T12:12:14;13.43;;;9.25;;
42118;SDS011;27783;42.782;23.274;2022-08-11T12:14:58;14.15;;;8.52;;
42118;SDS011;27783;42.782;23.274;2022-08-11T12:17:24;12.80;;;8.63;;
42118;SDS011;27783;42.782;23.274;2022-08-11T12:19:50;12.57;;;7.90;;
42118;SDS011;27783;42.782;23.274;2022-08-11T12:22:16;9.30;;;6.78;;
42118;SDS011;27783;42.782;23.274;2022-08-11T12:25:01;11.65;;;8.07;;
42118;SDS011;27783;42.782;23.274;2022-08-11T12:27:46;11.43;;;7.03;;
42118;SDS011;27783;42.782;23.274;2022-08-11T12:30:12;12.95;;;8.38;;
42118;SDS011;27783;42.782;23.274;2022-08-11T12:32:38;11.48;;;7.53;;
42118;SDS011;27783;42.782;23.274;2022-08-11T12:35:04;8.75;;;6.35;;
42118;SDS011;27783;42.782;23.274;2022-08-11T12:37:34;19.55;;;12.77;;
42118;SDS011;27783;42.782;23.274;2022-08-11T12:40:12;27.25;;;12.32;;
42118;SDS011;27783;42.782;23.274;2022-08-11T12:42:58;27.25;;;12.95;;
42118;SDS011;27783;42.782;23.274;2022-08-11T12:48:12;15.57;;;10.27;;
42118;SDS011;27783;42.782;23.274;2022-08-11T12:51:01;23.00;;;10.57;;
42118;SDS011;27783;42.782;23.274;2022-08-11T12:54:08;20.63;;;10.45;;
42118;SDS011;27783;42.782;23.274;2022-08-11T12:56:38;19.60;;;9.40;;
42118;SDS011;27783;42.782;23.274;2022-08-11T12:59:43;16.83;;;9.02;;
42118;SDS011;27783;42.782;23.274;2022-08-11T13:02:28;9.88;;;7.85;;
42118;SDS011;27783;42.782;23.274;2022-08-11T13:05:13;13.85;;;6.60;;
42118;SDS011;27783;42.782;23.274;2022-08-11T13:07:41;8.63;;;6.55;;
42118;SDS011;27783;42.782;23.274;2022-08-11T13:12:34;7.80;;;7.07;;
42118;SDS011;27783;42.782;23.274;2022-08-11T13:15:19;8.85;;;7.47;;
42118;SDS011;27783;42.782;23.274;2022-08-11T13:17:48;11.82;;;7.30;;
42118;SDS011;27783;42.782;23.274;2022-08-11T13:20:15;7.80;;;4.97;;
42118;SDS011;27783;42.782;23.274;2022-08-11T13:22:44;6.50;;;5.90;;
42118;SDS011;27783;42.782;23.274;2022-08-11T13:25:12;7.80;;;6.55;;
42118;SDS011;27783;42.782;23.274;2022-08-11T13:27:40;8.52;;;6.38;;
42118;SDS011;27783;42.782;23.274;2022-08-11T13:30:07;7.45;;;6.75;;
42118;SDS011;27783;42.782;23.274;2022-08-11T13:32:51;7.75;;;5.55;;
42118;SDS011;27783;42.782;23.274;2022-08-11T13:35:18;6.55;;;4.95;;
42118;SDS011;27783;42.782;23.274;2022-08-11T13:37:44;7.90;;;5.75;;
42118;SDS011;27783;42.782;23.274;2022-08-11T13:40:11;9.25;;;6.43;;
42118;SDS011;27783;42.782;23.274;2022-08-11T13:42:38;5.68;;;5.18;;
42118;SDS011;27783;42.782;23.274;2022-08-11T13:45:05;5.95;;;5.20;;
42118;SDS011;27783;42.782;23.274;2022-08-11T13:47:32;7.03;;;5.78;;
42118;SDS011;27783;42.782;23.274;2022-08-11T13:49:59;44.60;;;16.60;;
42118;SDS011;27783;42.782;23.274;2022-08-11T13:52:25;34.60;;;12.70;;
42118;SDS011;27783;42.782;23.274;2022-08-11T13:54:52;27.10;;;11.25;;
42118;SDS011;27783;42.782;23.274;2022-08-11T13:57:18;30.35;;;10.65;;
42118;SDS011;27783;42.782;23.274;2022-08-11T13:59:51;14.17;;;8.90;;
42118;SDS011;27783;42.782;23.274;2022-08-11T14:02:34;19.92;;;8.20;;
42118;SDS011;27783;42.782;23.274;2022-08-11T14:05:02;12.00;;;6.82;;
42118;SDS011;27783;42.782;23.274;2022-08-11T14:07:36;12.65;;;6.82;;
42118;SDS011;27783;42.782;23.274;2022-08-11T14:10:05;9.27;;;5.15;;
42118;SDS011;27783;42.782;23.274;2022-08-11T14:12:32;7.20;;;4.68;;
42118;SDS011;27783;42.782;23.274;2022-08-11T14:15:19;13.63;;;5.78;;
42118;SDS011;27783;42.782;23.274;2022-08-11T14:17:56;7.13;;;4.65;;
42118;SDS011;27783;42.782;23.274;2022-08-11T14:20:27;7.93;;;4.28;;
42118;SDS011;27783;42.782;23.274;2022-08-11T14:23:18;6.15;;;4.68;;
42118;SDS011;27783;42.782;23.274;2022-08-11T14:25:50;14.25;;;10.32;;
42118;SDS011;27783;42.782;23.274;2022-08-11T14:28:34;8.48;;;5.80;;
42118;SDS011;27783;42.782;23.274;2022-08-11T14:31:01;11.27;;;5.32;;
42118;SDS011;27783;42.782;23.274;2022-08-11T14:33:32;11.75;;;4.80;;
42118;SDS011;27783;42.782;23.274;2022-08-11T14:35:59;12.25;;;5.78;;
42118;SDS011;27783;42.782;23.274;2022-08-11T14:38:27;9.65;;;4.40;;
42118;SDS011;27783;42.782;23.274;2022-08-11T14:40:53;14.15;;;10.25;;
42118;SDS011;27783;42.782;23.274;2022-08-11T14:43:37;12.75;;;11.85;;
42118;SDS011;27783;42.782;23.274;2022-08-11T14:46:23;8.55;;;7.75;;
42118;SDS011;27783;42.782;23.274;2022-08-11T14:49:08;5.63;;;4.95;;
42118;SDS011;27783;42.782;23.274;2022-08-11T14:51:35;6.80;;;6.07;;
42118;SDS011;27783;42.782;23.274;2022-08-11T14:54:00;8.32;;;5.68;;
42118;SDS011;27783;42.782;23.274;2022-08-11T14:56:46;7.72;;;5.30;;
42118;SDS011;27783;42.782;23.274;2022-08-11T14:59:12;6.72;;;5.75;;
42118;SDS011;27783;42.782;23.274;2022-08-11T15:01:38;5.55;;;4.95;;
42118;SDS011;27783;42.782;23.274;2022-08-11T15:04:22;6.10;;;4.70;;
42118;SDS011;27783;42.782;23.274;2022-08-11T15:06:48;7.68;;;4.43;;
42118;SDS011;27783;42.782;23.274;2022-08-11T15:09:15;4.53;;;4.13;;
42118;SDS011;27783;42.782;23.274;2022-08-11T15:11:42;8.20;;;4.25;;
42118;SDS011;27783;42.782;23.274;2022-08-11T15:14:28;3.65;;;3.35;;
42118;SDS011;27783;42.782;23.274;2022-08-11T15:17:12;5.40;;;3.65;;
42118;SDS011;27783;42.782;23.274;2022-08-11T15:19:39;3.40;;;2.88;;
42118;SDS011;27783;42.782;23.274;2022-08-11T15:22:28;4.75;;;4.25;;
42118;SDS011;27783;42.782;23.274;2022-08-11T15:25:12;4.35;;;3.05;;
42118;SDS011;27783;42.782;23.274;2022-08-11T15:27:38;3.95;;;3.42;;
42118;SDS011;27783;42.782;23.274;2022-08-11T15:30:24;4.95;;;3.85;;
42118;SDS011;27783;42.782;23.274;2022-08-11T15:33:10;4.20;;;3.60;;
42118;SDS011;27783;42.782;23.274;2022-08-11T15:38:43;3.90;;;3.60;;
42118;SDS011;27783;42.782;23.274;2022-08-11T15:41:14;4.68;;;3.45;;
42118;SDS011;27783;42.782;23.274;2022-08-11T15:44:00;8.55;;;5.53;;
42118;SDS011;27783;42.782;23.274;2022-08-11T15:46:46;21.33;;;8.70;;
42118;SDS011;27783;42.782;23.274;2022-08-11T15:49:14;22.58;;;7.78;;
42118;SDS011;27783;42.782;23.274;2022-08-11T15:51:45;14.27;;;6.47;;
42118;SDS011;27783;42.782;23.274;2022-08-11T15:54:18;12.15;;;5.88;;
42118;SDS011;27783;42.782;23.274;2022-08-11T15:56:48;13.00;;;5.88;;
42118;SDS011;27783;42.782;23.274;2022-08-11T15:59:16;6.35;;;3.90;;
42118;SDS011;27783;42.782;23.274;2022-08-11T16:02:03;6.85;;;5.20;;
42118;SDS011;27783;42.782;23.274;2022-08-11T16:04:36;10.23;;;6.15;;
42118;SDS011;27783;42.782;23.274;2022-08-11T16:07:10;6.32;;;5.55;;
42118;SDS011;27783;42.782;23.274;2022-08-11T16:09:46;10.98;;;6.20;;
42118;SDS011;27783;42.782;23.274;2022-08-11T16:12:20;11.05;;;6.60;;
42118;SDS011;27783;42.782;23.274;2022-08-11T16:14:52;18.15;;;6.15;;
42118;SDS011;27783;42.782;23.274;2022-08-11T16:17:46;12.45;;;5.10;;
42118;SDS011;27783;42.782;23.274;2022-08-11T16:20:15;8.68;;;4.72;;
42118;SDS011;27783;42.782;23.274;2022-08-11T16:22:44;7.13;;;4.05;;
42118;SDS011;27783;42.782;23.274;2022-08-11T16:25:20;6.30;;;3.78;;
42118;SDS011;27783;42.782;23.274;2022-08-11T16:28:05;7.78;;;4.80;;
42118;SDS011;27783;42.782;23.274;2022-08-11T16:30:33;4.82;;;3.92;;
42118;SDS011;27783;42.782;23.274;2022-08-11T16:33:00;4.05;;;3.63;;
42118;SDS011;27783;42.782;23.274;2022-08-11T16:35:29;5.72;;;3.75;;
42118;SDS011;27783;42.782;23.274;2022-08-11T16:38:18;5.70;;;3.90;;
42118;SDS011;27783;42.782;23.274;2022-08-11T16:41:00;4.10;;;3.50;;
42118;SDS011;27783;42.782;23.274;2022-08-11T16:43:31;5.93;;;3.80;;
42118;SDS011;27783;42.782;23.274;2022-08-11T16:46:20;5.22;;;4.07;;
42118;SDS011;27783;42.782;23.274;2022-08-11T16:49:06;8.07;;;4.57;;
42118;SDS011;27783;42.782;23.274;2022-08-11T16:51:35;5.10;;;4.10;;
42118;SDS011;27783;42.782;23.274;2022-08-11T16:54:00;6.20;;;4.72;;
42118;SDS011;27783;42.782;23.274;2022-08-11T16:56:27;6.57;;;5.15;;
42118;SDS011;27783;42.782;23.274;2022-08-11T16:58:56;8.13;;;5.68;;
42118;SDS011;27783;42.782;23.274;2022-08-11T17:01:45;10.07;;;6.50;;
42118;SDS011;27783;42.782;23.274;2022-08-11T17:07:12;5.97;;;4.93;;
42118;SDS011;27783;42.782;23.274;2022-08-11T17:09:59;9.20;;;7.13;;
42118;SDS011;27783;42.782;23.274;2022-08-11T17:12:45;6.53;;;5.75;;
42118;SDS011;27783;42.782;23.274;2022-08-11T17:15:32;20.30;;;8.90;;
42118;SDS011;27783;42.782;23.274;2022-08-11T17:18:19;12.80;;;9.68;;
42118;SDS011;27783;42.782;23.274;2022-08-11T17:21:49;14.32;;;7.93;;
42118;SDS011;27783;42.782;23.274;2022-08-11T17:24:03;15.10;;;7.15;;
42118;SDS011;27783;42.782;23.274;2022-08-11T17:26:42;8.30;;;6.03;;
42118;SDS011;27783;42.782;23.274;2022-08-11T17:29:32;15.18;;;5.80;;
42118;SDS011;27783;42.782;23.274;2022-08-11T17:32:20;7.43;;;4.50;;
42118;SDS011;27783;42.782;23.274;2022-08-11T17:38:16;6.28;;;3.63;;
42118;SDS011;27783;42.782;23.274;2022-08-11T17:40:44;5.38;;;3.38;;
42118;SDS011;27783;42.782;23.274;2022-08-11T17:43:31;4.38;;;3.97;;
42118;SDS011;27783;42.782;23.274;2022-08-11T17:46:16;6.60;;;5.20;;
42118;SDS011;27783;42.782;23.274;2022-08-11T17:49:06;7.32;;;5.63;;
42118;SDS011;27783;42.782;23.274;2022-08-11T17:51:33;6.78;;;4.68;;
42118;SDS011;27783;42.782;23.274;2022-08-11T17:54:20;8.40;;;3.80;;
42118;SDS011;27783;42.782;23.274;2022-08-11T17:57:05;6.55;;;4.57;;
42118;SDS011;27783;42.782;23.274;2022-08-11T17:59:51;6.22;;;3.88;;
42118;SDS011;27783;42.782;23.274;2022-08-11T18:05:09;30.73;;;8.60;;
42118;SDS011;27783;42.782;23.274;2022-08-11T18:07:36;29.08;;;7.95;;
42118;SDS011;27783;42.782;23.274;2022-08-11T18:10:20;21.30;;;7.03;;
42118;SDS011;27783;42.782;23.274;2022-08-11T18:13:04;16.70;;;5.43;;
42118;SDS011;27783;42.782;23.274;2022-08-11T18:15:49;15.50;;;5.00;;
42118;SDS011;27783;42.782;23.274;2022-08-11T18:18:33;17.08;;;4.07;;
42118;SDS011;27783;42.782;23.274;2022-08-11T18:21:17;31.58;;;6.82;;
42118;SDS011;27783;42.782;23.274;2022-08-11T18:24:10;4.60;;;3.20;;
42118;SDS011;27783;42.782;23.274;2022-08-11T18:26:57;9.45;;;4.80;;
42118;SDS011;27783;42.782;23.274;2022-08-11T18:29:44;7.95;;;4.70;;
42118;SDS011;27783;42.782;23.274;2022-08-11T18:32:30;11.88;;;4.30;;
42118;SDS011;27783;42.782;23.274;2022-08-11T18:35:17;9.27;;;3.90;;
42118;SDS011;27783;42.782;23.274;2022-08-11T18:38:02;6.20;;;3.10;;
42118;SDS011;27783;42.782;23.274;2022-08-11T18:40:49;5.05;;;3.70;;
42118;SDS011;27783;42.782;23.274;2022-08-11T18:43:35;10.18;;;4.25;;
42118;SDS011;27783;42.782;23.274;2022-08-11T18:46:21;10.23;;;3.17;;
42118;SDS011;27783;42.782;23.274;2022-08-11T18:49:08;5.97;;;3.10;;
42118;SDS011;27783;42.782;23.274;2022-08-11T18:51:54;7.07;;;3.70;;
42118;SDS011;27783;42.782;23.274;2022-08-11T18:54:40;3.28;;;2.65;;
42118;SDS011;27783;42.782;23.274;2022-08-11T18:57:26;3.00;;;2.30;;
42118;SDS011;27783;42.782;23.274;2022-08-11T19:00:12;5.43;;;2.78;;
42118;SDS011;27783;42.782;23.274;2022-08-11T19:02:58;4.10;;;2.75;;
42118;SDS011;27783;42.782;23.274;2022-08-11T19:05:43;2.65;;;2.33;;
42118;SDS011;27783;42.782;23.274;2022-08-11T19:08:30;3.53;;;2.88;;
42118;SDS011;27783;42.782;23.274;2022-08-11T19:11:19;5.40;;;2.40;;
42118;SDS011;27783;42.782;23.274;2022-08-11T19:14:03;5.30;;;2.70;;
42118;SDS011;27783;42.782;23.274;2022-08-11T19:16:48;5.57;;;2.92;;
42118;SDS011;27783;42.782;23.274;2022-08-11T19:19:34;3.13;;;2.83;;
42118;SDS011;27783;42.782;23.274;2022-08-11T19:22:20;13.98;;;2.80;;
42118;SDS011;27783;42.782;23.274;2022-08-11T19:25:06;3.40;;;2.85;;
42118;SDS011;27783;42.782;23.274;2022-08-11T19:27:51;14.73;;;3.70;;
42118;SDS011;27783;42.782;23.274;2022-08-11T19:30:36;7.97;;;3.78;;
42118;SDS011;27783;42.782;23.274;2022-08-11T19:33:22;6.70;;;2.72;;
42118;SDS011;27783;42.782;23.274;2022-08-11T19:36:07;3.70;;;2.92;;
42118;SDS011;27783;42.782;23.274;2022-08-11T19:38:51;2.67;;;2.47;;
42118;SDS011;27783;42.782;23.274;2022-08-11T19:41:37;3.15;;;2.85;;
42118;SDS011;27783;42.782;23.274;2022-08-11T19:44:23;3.95;;;2.83;;
42118;SDS011;27783;42.782;23.274;2022-08-11T19:47:08;3.38;;;3.00;;
42118;SDS011;27783;42.782;23.274;2022-08-11T19:49:53;3.20;;;2.17;;
42118;SDS011;27783;42.782;23.274;2022-08-11T19:52:37;3.55;;;2.63;;
42118;SDS011;27783;42.782;23.274;2022-08-11T19:55:23;5.18;;;2.97;;
42118;SDS011;27783;42.782;23.274;2022-08-11T19:58:09;3.10;;;2.80;;